Time;durP1;ratioP1;P1;durP2;ratioP2;P2;SDS_P1;SDS_P2;PMS_P1;PMS_P2;Temp;Humidity;BMP_temperature;BMP_pressure;BME280_temperature;BME280_humidity;BME280_pressure;Samples;Min_cycle;Max_cycle;Signal;HPM_P1;HPM_P2
2022/11/25 00:01:51;;;;;;;17.88;10.25;;;;;;;;;;10424950;28;20038;-80
2022/11/25 00:06:51;;;;;;;12.68;8.48;;;;;;;;;;10410169;28;20041;-81
2022/11/25 00:11:53;;;;;;;15.73;8.63;;;;;;;;;;10409382;28;20045;-81
2022/11/25 00:16:53;;;;;;;13.75;9.32;;;;;;;;;;10474626;22;20049;-82
2022/11/25 00:21:53;;;;;;;14.00;8.63;;;;;;;;;;10400484;28;20128;-82
2022/11/25 00:26:54;;;;;;;14.57;9.13;;;;;;;;;;10423349;28;20030;-78
2022/11/25 00:31:56;;;;;;;16.85;9.15;;;;;;;;;;10416251;28;20026;-79
2022/11/25 00:36:56;;;;;;;18.77;9.93;;;;;;;;;;10445498;28;20116;-80
2022/11/25 00:47:17;;;;;;;14.05;8.75;;;;;;;;;;10388041;28;20038;-80
2022/11/25 00:52:20;;;;;;;11.70;7.78;;;;;;;;;;10397160;28;20034;-80
2022/11/25 00:57:22;;;;;;;11.75;7.68;;;;;;;;;;10396607;28;20155;-80
2022/11/25 01:02:22;;;;;;;14.63;8.80;;;;;;;;;;10397208;28;20110;-79
2022/11/25 01:07:23;;;;;;;11.85;7.57;;;;;;;;;;10394946;28;20120;-79
2022/11/25 01:12:24;;;;;;;13.15;7.57;;;;;;;;;;10417019;28;20018;-78
2022/11/25 01:17:25;;;;;;;10.95;6.90;;;;;;;;;;10394220;28;20963;-78
2022/11/25 01:22:27;;;;;;;14.50;8.35;;;;;;;;;;10413807;28;20052;-80
2022/11/25 01:27:28;;;;;;;14.15;8.57;;;;;;;;;;10419469;28;20490;-77
2022/11/25 01:32:28;;;;;;;13.63;8.27;;;;;;;;;;10393775;28;20049;-79
2022/11/25 01:37:32;;;;;;;12.50;7.85;;;;;;;;;;10397537;28;20041;-80
2022/11/25 01:42:33;;;;;;;16.30;7.97;;;;;;;;;;10423933;28;20402;-81
2022/11/25 01:47:34;;;;;;;11.90;6.43;;;;;;;;;;10429237;28;20036;-80
2022/11/25 01:52:41;;;;;;;13.40;7.82;;;;;;;;;;10409408;28;20033;-80
2022/11/25 01:57:46;;;;;;;19.23;8.82;;;;;;;;;;10379936;28;20057;-79
2022/11/25 02:02:48;;;;;;;14.45;7.63;;;;;;;;;;10389983;28;20581;-81
2022/11/25 02:07:50;;;;;;;15.13;8.63;;;;;;;;;;10381236;28;20041;-81
2022/11/25 02:12:52;;;;;;;13.80;8.20;;;;;;;;;;10382820;28;20037;-80
2022/11/25 02:17:53;;;;;;;12.55;7.72;;;;;;;;;;10367868;28;20346;-78
2022/11/25 02:23:00;;;;;;;13.65;6.97;;;;;;;;;;10370543;28;20050;-80
2022/11/25 02:28:04;;;;;;;9.55;6.50;;;;;;;;;;10369216;28;20029;-81
2022/11/25 02:33:04;;;;;;;14.65;7.47;;;;;;;;;;10382288;28;20493;-81
2022/11/25 02:38:10;;;;;;;14.18;7.47;;;;;;;;;;10380442;28;20033;-80
2022/11/25 02:43:11;;;;;;;13.05;7.10;;;;;;;;;;10372705;28;20041;-78
2022/11/25 02:48:12;;;;;;;12.40;6.78;;;;;;;;;;10346044;28;20422;-80
2022/11/25 02:53:13;;;;;;;14.70;7.72;;;;;;;;;;10370843;28;20053;-79
2022/11/25 02:58:14;;;;;;;11.65;6.95;;;;;;;;;;10389570;28;20076;-80
2022/11/25 03:03:16;;;;;;;14.18;7.97;;;;;;;;;;10414965;28;20030;-79
2022/11/25 03:08:20;;;;;;;12.82;7.28;;;;;;;;;;10445044;28;20068;-79
2022/11/25 03:13:21;;;;;;;11.63;6.47;;;;;;;;;;10432846;28;20037;-79
2022/11/25 03:18:22;;;;;;;10.43;6.63;;;;;;;;;;10424835;28;20032;-80
2022/11/25 03:23:23;;;;;;;15.68;8.38;;;;;;;;;;10422814;28;20042;-80
2022/11/25 03:28:26;;;;;;;14.25;7.20;;;;;;;;;;10418827;28;20061;-81
2022/11/25 03:33:27;;;;;;;11.23;6.60;;;;;;;;;;10437526;28;20036;-81
2022/11/25 03:38:29;;;;;;;11.68;6.38;;;;;;;;;;10427517;28;20022;-79
2022/11/25 03:43:30;;;;;;;13.43;6.80;;;;;;;;;;10438232;28;20052;-79
2022/11/25 03:48:30;;;;;;;12.98;7.15;;;;;;;;;;10429909;28;20061;-79
2022/11/25 03:53:31;;;;;;;10.07;6.80;;;;;;;;;;10425538;28;20049;-80
2022/11/25 03:58:34;;;;;;;11.00;6.45;;;;;;;;;;10401255;28;20440;-81
2022/11/25 04:03:36;;;;;;;9.68;6.13;;;;;;;;;;10382108;28;20104;-81
2022/11/25 04:08:37;;;;;;;10.60;6.45;;;;;;;;;;10377482;28;20450;-81
2022/11/25 04:13:39;;;;;;;13.57;7.50;;;;;;;;;;10377320;28;20104;-81
2022/11/25 04:18:39;;;;;;;11.95;7.85;;;;;;;;;;10399211;28;20053;-79
2022/11/25 04:23:39;;;;;;;11.77;6.73;;;;;;;;;;10421740;28;20034;-78
2022/11/25 04:28:44;;;;;;;14.20;7.30;;;;;;;;;;10421445;28;20281;-81
2022/11/25 04:33:44;;;;;;;13.98;7.53;;;;;;;;;;10400222;28;20030;-78
2022/11/25 04:38:46;;;;;;;12.15;7.82;;;;;;;;;;10420568;28;20017;-78
2022/11/25 04:43:46;;;;;;;12.63;8.48;;;;;;;;;;10401922;28;20088;-83
2022/11/25 04:48:47;;;;;;;14.65;8.60;;;;;;;;;;10386987;28;20039;-82
2022/11/25 04:53:49;;;;;;;14.27;8.25;;;;;;;;;;10382745;28;20109;-80
2022/11/25 05:04:13;;;;;;;14.13;7.10;;;;;;;;;;10389620;28;20059;-80
2022/11/25 05:09:15;;;;;;;14.35;8.32;;;;;;;;;;10382238;28;20046;-80
2022/11/25 05:14:18;;;;;;;12.68;7.57;;;;;;;;;;10389974;28;20499;-79
2022/11/25 05:19:18;;;;;;;12.43;6.82;;;;;;;;;;10377160;28;20041;-77
2022/11/25 05:24:19;;;;;;;12.48;7.25;;;;;;;;;;10388293;28;20064;-77
2022/11/25 05:29:22;;;;;;;12.25;6.15;;;;;;;;;;10387013;28;20125;-78
2022/11/25 05:34:22;;;;;;;15.98;8.45;;;;;;;;;;10380781;28;20128;-81
2022/11/25 05:39:23;;;;;;;13.98;7.57;;;;;;;;;;10382797;28;20972;-80
2022/11/25 05:45:00;;;;;;;10.70;7.30;;;;;;;;;;10367124;28;20120;-82
2022/11/25 05:50:02;;;;;;;12.88;7.88;;;;;;;;;;10379061;28;20053;-81
2022/11/25 05:55:04;;;;;;;10.55;6.43;;;;;;;;;;10379907;28;20402;-81
2022/11/25 06:00:05;;;;;;;11.95;6.90;;;;;;;;;;10383146;28;20041;-79
2022/11/25 06:05:22;;;;;;;12.50;6.90;;;;;;;;;;10360469;28;20493;-83
2022/11/25 06:10:23;;;;;;;12.07;7.50;;;;;;;;;;10388691;28;20096;-82
2022/11/25 06:15:25;;;;;;;15.80;8.13;;;;;;;;;;10362839;28;20052;-82
2022/11/25 06:20:28;;;;;;;;;;;;;;;;;;10357075;28;20046;-81
2022/11/25 06:25:29;;;;;;;13.48;8.20;;;;;;;;;;10345239;28;19918;-81
2022/11/25 06:30:30;;;;;;;15.13;8.50;;;;;;;;;;10364018;28;20050;-82
2022/11/25 06:35:46;;;;;;;14.63;8.40;;;;;;;;;;10363568;28;20096;-81
2022/11/25 06:40:47;;;;;;;17.20;9.95;;;;;;;;;;10383415;28;20076;-83
2022/11/25 06:45:47;;;;;;;15.90;8.60;;;;;;;;;;10389732;28;20520;-82
2022/11/25 06:50:55;;;;;;;13.20;7.78;;;;;;;;;;10366690;28;20041;-81
2022/11/25 06:56:02;;;;;;;16.27;8.77;;;;;;;;;;10377266;28;20056;-81
2022/11/25 07:01:02;;;;;;;15.82;9.07;;;;;;;;;;10379778;28;20120;-80
2022/11/25 07:06:03;;;;;;;16.67;8.67;;;;;;;;;;10363033;28;20030;-78
2022/11/25 07:11:09;;;;;;;21.13;10.43;;;;;;;;;;10379008;28;20308;-81
2022/11/25 07:16:09;;;;;;;18.08;9.55;;;;;;;;;;10382418;28;20057;-81
2022/11/25 07:21:11;;;;;;;19.77;10.38;;;;;;;;;;10380086;28;20041;-79
2022/11/25 07:26:13;;;;;;;19.88;10.43;;;;;;;;;;10384690;28;20392;-81
2022/11/25 07:31:18;;;;;;;24.90;13.70;;;;;;;;;;10396113;28;20034;-79
2022/11/25 07:36:19;;;;;;;28.98;14.38;;;;;;;;;;10382157;28;20053;-79
2022/11/25 07:41:21;;;;;;;21.55;13.02;;;;;;;;;;10391800;28;20120;-80
2022/11/25 07:46:23;;;;;;;23.17;12.23;;;;;;;;;;10373150;28;20034;-81
2022/11/25 07:51:29;;;;;;;24.08;12.35;;;;;;;;;;10367689;28;20119;-81
2022/11/25 07:56:31;;;;;;;22.73;12.48;;;;;;;;;;10364528;28;20061;-81
2022/11/25 08:01:32;;;;;;;20.33;13.90;;;;;;;;;;10382913;28;20048;-80
2022/11/25 08:06:36;;;;;;;23.70;12.27;;;;;;;;;;10377164;28;20045;-79
2022/11/25 08:11:37;;;;;;;28.10;13.52;;;;;;;;;;10376082;28;20482;-80
2022/11/25 08:16:38;;;;;;;26.27;12.02;;;;;;;;;;10374880;28;20057;-81
2022/11/25 08:21:38;;;;;;;24.92;12.70;;;;;;;;;;10383530;28;20819;-80
2022/11/25 08:26:39;;;;;;;21.25;12.52;;;;;;;;;;10405063;28;20470;-80
2022/11/25 08:31:39;;;;;;;21.67;11.37;;;;;;;;;;10390047;28;20119;-81
2022/11/25 08:36:39;;;;;;;17.30;10.93;;;;;;;;;;10389363;28;20363;-80
2022/11/25 08:41:40;;;;;;;18.70;10.73;;;;;;;;;;10364215;28;20284;-80
2022/11/25 08:46:41;;;;;;;15.35;9.93;;;;;;;;;;10383733;28;20038;-82
2022/11/25 08:51:43;;;;;;;15.13;10.07;;;;;;;;;;10378058;28;20073;-81
2022/11/25 08:56:44;;;;;;;14.37;9.87;;;;;;;;;;10382932;28;20087;-80
2022/11/25 09:01:44;;;;;;;15.00;9.55;;;;;;;;;;10390397;28;20811;-80
2022/11/25 09:06:45;;;;;;;12.55;8.45;;;;;;;;;;10375408;28;20026;-81
2022/11/25 09:11:45;;;;;;;14.15;8.32;;;;;;;;;;10374231;28;20036;-80
2022/11/25 09:16:45;;;;;;;12.55;8.02;;;;;;;;;;10379667;28;20488;-79
2022/11/25 09:21:46;;;;;;;12.53;7.80;;;;;;;;;;10369824;28;20145;-81
2022/11/25 09:26:48;;;;;;;10.00;7.43;;;;;;;;;;10381001;28;20292;-81
2022/11/25 09:31:49;;;;;;;11.73;7.10;;;;;;;;;;10380276;28;20292;-80
2022/11/25 09:36:49;;;;;;;11.15;6.80;;;;;;;;;;10372098;28;20049;-80
2022/11/25 09:47:19;;;;;;;10.00;6.50;;;;;;;;;;10381388;28;20379;-78
2022/11/25 09:52:42;;;;;;;10.15;6.72;;;;;;;;;;10358198;28;20120;-79
2022/11/25 09:57:55;;;;;;;9.40;6.37;;;;;;;;;;10371255;28;20137;-80
2022/11/25 10:03:14;;;;;;;6.88;5.72;;;;;;;;;;10411783;28;20045;-78
2022/11/25 10:08:17;;;;;;;9.13;5.80;;;;;;;;;;10397792;28;20034;-79
2022/11/25 10:13:41;;;;;;;9.77;6.38;;;;;;;;;;10380682;28;20481;-81
2022/11/25 10:18:44;;;;;;;10.07;6.33;;;;;;;;;;10361412;28;20041;-81
2022/11/25 10:23:44;;;;;;;7.90;6.00;;;;;;;;;;10379678;28;20104;-81
2022/11/25 10:28:56;;;;;;;7.70;5.78;;;;;;;;;;10377160;28;20414;-81
2022/11/25 10:33:58;;;;;;;10.68;5.40;;;;;;;;;;10376189;28;20064;-80
2022/11/25 10:39:04;;;;;;;9.55;6.22;;;;;;;;;;10379478;28;20041;-81
2022/11/25 10:44:08;;;;;;;9.65;6.35;;;;;;;;;;10369508;28;20041;-81
2022/11/25 10:49:14;;;;;;;8.07;5.18;;;;;;;;;;10376656;28;20096;-81
2022/11/25 10:54:14;;;;;;;6.78;5.20;;;;;;;;;;10387584;28;20040;-79
2022/11/25 10:59:37;;;;;;;8.83;5.80;;;;;;;;;;10429769;28;20053;-79
2022/11/25 11:04:56;;;;;;;6.43;4.60;;;;;;;;;;10424561;28;20281;-79
2022/11/25 11:10:12;;;;;;;5.60;4.45;;;;;;;;;;10422765;28;20099;-78
2022/11/25 11:15:14;;;;;;;5.90;4.75;;;;;;;;;;10404224;28;20475;-79
2022/11/25 11:20:22;;;;;;;6.65;4.88;;;;;;;;;;10367840;28;20042;-80
2022/11/25 11:25:25;;;;;;;7.57;5.22;;;;;;;;;;10356222;28;20049;-83
2022/11/25 11:30:28;;;;;;;6.70;4.82;;;;;;;;;;10369835;28;20073;-80
2022/11/25 11:35:36;;;;;;;7.63;5.47;;;;;;;;;;10370066;28;20162;-79
2022/11/25 11:40:49;;;;;;;9.32;5.35;;;;;;;;;;10364829;28;20049;-80
2022/11/25 11:45:53;;;;;;;5.83;4.87;;;;;;;;;;10359631;28;20034;-77
2022/11/25 11:51:01;;;;;;;6.50;5.00;;;;;;;;;;10356679;28;20033;-78
2022/11/25 11:56:07;;;;;;;8.43;5.00;;;;;;;;;;10383071;28;20104;-80
2022/11/25 12:01:19;;;;;;;7.75;4.97;;;;;;;;;;10390730;28;20339;-78
2022/11/25 12:06:21;;;;;;;7.50;5.25;;;;;;;;;;10400921;28;20053;-80
2022/11/25 12:11:24;;;;;;;7.18;5.88;;;;;;;;;;10381986;28;20061;-81
2022/11/25 12:16:30;;;;;;;6.85;5.97;;;;;;;;;;10396573;28;20060;-81
2022/11/25 12:21:49;;;;;;;7.78;5.43;;;;;;;;;;10365987;28;20045;-81
2022/11/25 12:26:56;;;;;;;7.22;5.68;;;;;;;;;;10368901;28;20521;-80
2022/11/25 12:32:17;;;;;;;5.53;4.53;;;;;;;;;;10376185;28;20053;-81
2022/11/25 12:37:47;;;;;;;9.50;6.38;;;;;;;;;;10372795;28;20054;-81
2022/11/25 12:42:48;;;;;;;8.55;5.30;;;;;;;;;;10364992;28;20045;-82
2022/11/25 12:47:49;;;;;;;6.45;5.40;;;;;;;;;;10377400;28;20046;-81
2022/11/25 12:52:53;;;;;;;7.03;4.95;;;;;;;;;;10386997;28;20572;-80
2022/11/25 12:57:58;;;;;;;6.68;5.30;;;;;;;;;;10397716;28;20046;-81
2022/11/25 13:03:14;;;;;;;8.40;5.63;;;;;;;;;;10390615;28;20053;-81
2022/11/25 13:08:14;;;;;;;9.90;6.30;;;;;;;;;;10404778;28;20034;-84
2022/11/25 13:13:35;;;;;;;11.02;6.45;;;;;;;;;;10408300;28;20073;-81
2022/11/25 13:18:38;;;;;;;6.65;5.72;;;;;;;;;;10399832;28;20058;-81
2022/11/25 13:23:47;;;;;;;8.30;6.22;;;;;;;;;;10377538;28;20049;-82
2022/11/25 13:28:50;;;;;;;11.52;6.30;;;;;;;;;;10391097;28;20041;-84
2022/11/25 13:33:55;;;;;;;10.37;7.43;;;;;;;;;;10386151;28;20056;-83
2022/11/25 13:38:55;;;;;;;11.40;7.90;;;;;;;;;;10383763;28;20121;-82
2022/11/25 13:43:58;;;;;;;10.18;7.78;;;;;;;;;;10387614;28;20057;-86
2022/11/25 13:48:58;;;;;;;11.13;8.05;;;;;;;;;;10396516;28;20065;-85
2022/11/25 13:54:05;;;;;;;9.73;7.03;;;;;;;;;;10390249;28;20038;-82
2022/11/25 13:59:08;;;;;;;9.60;7.78;;;;;;;;;;10389076;28;20029;-84
2022/11/25 14:04:10;;;;;;;10.52;7.43;;;;;;;;;;10405804;28;20059;-84
2022/11/25 14:09:31;;;;;;;13.82;8.45;;;;;;;;;;10408778;28;20048;-84
2022/11/25 14:14:55;;;;;;;10.55;7.97;;;;;;;;;;10404450;28;20120;-83
2022/11/25 14:20:04;;;;;;;12.70;8.18;;;;;;;;;;10397783;28;20088;-85
2022/11/25 14:25:13;;;;;;;12.27;8.15;;;;;;;;;;10398768;28;20045;-82
2022/11/25 14:30:14;;;;;;;13.75;9.65;;;;;;;;;;10378715;28;20108;-82
2022/11/25 14:35:24;;;;;;;11.82;8.65;;;;;;;;;;10357238;28;20053;-82
2022/11/25 14:40:34;;;;;;;13.82;9.85;;;;;;;;;;10381934;28;20040;-80
2022/11/25 14:45:35;;;;;;;12.15;9.02;;;;;;;;;;10386551;28;20132;-81
2022/11/25 14:50:35;;;;;;;15.60;11.00;;;;;;;;;;10429614;28;20038;-82
2022/11/25 14:55:36;;;;;;;11.65;9.25;;;;;;;;;;10435187;28;20034;-81
2022/11/25 15:00:48;;;;;;;19.63;11.20;;;;;;;;;;10376045;28;20041;-81
2022/11/25 15:05:53;;;;;;;16.40;11.25;;;;;;;;;;10380977;28;20393;-81
2022/11/25 15:11:02;;;;;;;18.10;12.15;;;;;;;;;;10383562;28;20034;-81
2022/11/25 15:16:05;;;;;;;17.98;12.00;;;;;;;;;;10368465;28;20129;-82
2022/11/25 15:21:06;;;;;;;16.20;11.30;;;;;;;;;;10367875;28;20041;-82
2022/11/25 15:26:33;;;;;;;20.23;12.00;;;;;;;;;;10387576;28;20061;-79
2022/11/25 15:31:34;;;;;;;19.30;11.65;;;;;;;;;;10354391;28;20045;-80
2022/11/25 15:36:35;;;;;;;13.85;10.02;;;;;;;;;;10399464;28;20073;-81
2022/11/25 15:41:36;;;;;;;17.73;10.73;;;;;;;;;;10380501;28;20046;-82
2022/11/25 15:46:36;;;;;;;15.60;10.57;;;;;;;;;;10383982;28;20038;-81
2022/11/25 15:51:41;;;;;;;17.08;11.77;;;;;;;;;;10371022;28;20490;-82
2022/11/25 15:56:47;;;;;;;22.40;13.85;;;;;;;;;;10406663;28;20049;-80
2022/11/25 16:01:49;;;;;;;17.60;12.55;;;;;;;;;;10409968;28;20018;-86
2022/11/25 16:06:58;;;;;;;21.05;12.90;;;;;;;;;;10792383;22;20039;-85
2022/11/25 16:12:15;;;;;;;15.80;11.55;;;;;;;;;;11436741;22;20045;-82
2022/11/25 16:17:17;;;;;;;20.27;12.82;;;;;;;;;;10413412;28;20108;-85
2022/11/25 16:22:18;;;;;;;17.13;11.55;;;;;;;;;;10402047;28;20098;-84
2022/11/25 16:27:20;;;;;;;;;;;;;;;;;;10400781;28;20037;-86
2022/11/25 16:32:23;;;;;;;18.70;12.47;;;;;;;;;;10411483;28;19905;-85
2022/11/25 16:37:24;;;;;;;17.98;12.93;;;;;;;;;;10397286;28;20082;-89
2022/11/25 16:42:27;;;;;;;21.83;14.30;;;;;;;;;;10385143;28;20039;-85
2022/11/25 16:52:44;;;;;;;25.10;14.32;;;;;;;;;;10663751;22;19909;-83
2022/11/25 16:57:57;;;;;;;21.90;15.05;;;;;;;;;;10425454;28;20037;-81
2022/11/25 17:03:27;;;;;;;19.60;13.73;;;;;;;;;;11414038;22;20045;-84
2022/11/25 17:08:34;;;;;;;20.42;14.50;;;;;;;;;;10445774;28;20040;-82
2022/11/25 17:13:44;;;;;;;19.83;14.48;;;;;;;;;;10438186;28;20033;-83
2022/11/25 17:18:45;;;;;;;20.35;13.98;;;;;;;;;;10495051;22;20038;-87
2022/11/25 17:23:46;;;;;;;25.98;15.68;;;;;;;;;;10374583;28;20068;-87
2022/11/25 17:28:55;;;;;;;18.40;14.02;;;;;;;;;;10391142;28;20093;-89
2022/11/25 17:33:58;;;;;;;22.10;14.70;;;;;;;;;;10525924;22;20055;-88
2022/11/25 17:38:58;;;;;;;19.77;13.70;;;;;;;;;;10457220;28;20025;-85
2022/11/25 17:43:59;;;;;;;22.17;13.20;;;;;;;;;;10444257;28;20083;-86
2022/11/25 17:49:01;;;;;;;21.02;13.85;;;;;;;;;;10443518;28;20308;-85
2022/11/25 17:54:03;;;;;;;23.95;14.98;;;;;;;;;;10409466;28;20028;-85
2022/11/25 17:59:27;;;;;;;23.67;13.85;;;;;;;;;;10648999;22;20072;-85
2022/11/25 18:04:34;;;;;;;20.47;13.37;;;;;;;;;;10443532;28;20021;-85
2022/11/25 18:09:36;;;;;;;17.85;12.70;;;;;;;;;;10460028;28;20049;-85
2022/11/25 18:14:42;;;;;;;20.15;12.32;;;;;;;;;;10460255;28;20059;-85
2022/11/25 18:19:48;;;;;;;20.45;12.38;;;;;;;;;;10463211;28;20069;-83
2022/11/25 18:25:09;;;;;;;20.42;11.75;;;;;;;;;;10447358;28;20021;-83
2022/11/25 18:30:27;;;;;;;20.88;12.85;;;;;;;;;;10460584;28;20101;-85
2022/11/25 18:35:33;;;;;;;20.45;13.65;;;;;;;;;;10452343;28;20045;-80
2022/11/25 18:40:39;;;;;;;25.05;14.15;;;;;;;;;;11267878;22;20069;-87
2022/11/25 18:46:06;;;;;;;20.05;12.07;;;;;;;;;;10414551;28;20056;-83
2022/11/25 18:51:09;;;;;;;16.90;12.07;;;;;;;;;;10395930;28;20029;-84
2022/11/25 18:56:11;;;;;;;14.45;10.57;;;;;;;;;;10389246;28;20072;-82
2022/11/25 19:01:13;;;;;;;21.90;12.07;;;;;;;;;;10374966;28;20562;-83
2022/11/25 19:06:14;;;;;;;15.90;10.85;;;;;;;;;;10377808;28;20053;-84
2022/11/25 19:11:17;;;;;;;15.80;10.10;;;;;;;;;;10374754;28;20513;-83
2022/11/25 19:16:19;;;;;;;16.02;10.68;;;;;;;;;;10406574;28;20113;-82
2022/11/25 19:21:20;;;;;;;17.02;11.10;;;;;;;;;;10395068;28;20030;-85
2022/11/25 19:26:25;;;;;;;15.38;11.38;;;;;;;;;;10399727;28;20089;-83
2022/11/25 19:31:29;;;;;;;19.48;11.88;;;;;;;;;;10377115;28;20041;-84
2022/11/25 19:36:30;;;;;;;21.63;13.13;;;;;;;;;;10399083;28;20049;-82
2022/11/25 19:41:31;;;;;;;19.60;13.38;;;;;;;;;;10388605;28;20094;-84
2022/11/25 19:46:33;;;;;;;18.73;11.90;;;;;;;;;;10362576;28;20108;-83
2022/11/25 19:51:35;;;;;;;19.10;12.63;;;;;;;;;;10366237;28;20045;-85
2022/11/25 19:56:36;;;;;;;20.98;14.23;;;;;;;;;;10368918;28;20050;-85
2022/11/25 20:01:39;;;;;;;22.70;13.75;;;;;;;;;;10357766;28;20085;-83
2022/11/25 20:06:39;;;;;;;20.73;13.13;;;;;;;;;;10354242;28;20137;-86
2022/11/25 20:11:41;;;;;;;22.00;12.80;;;;;;;;;;10415747;22;20511;-87
2022/11/25 20:16:44;;;;;;;29.95;18.00;;;;;;;;;;10383684;28;20103;-83
2022/11/25 20:21:47;;;;;;;23.38;16.38;;;;;;;;;;10418396;28;20018;-83
2022/11/25 20:26:49;;;;;;;29.90;18.55;;;;;;;;;;10378713;28;20053;-83
2022/11/25 20:31:55;;;;;;;29.25;20.02;;;;;;;;;;10420763;28;20090;-83
2022/11/25 20:36:56;;;;;;;26.55;19.20;;;;;;;;;;10420837;28;20024;-84
2022/11/25 20:41:56;;;;;;;30.35;19.35;;;;;;;;;;10386105;28;20026;-87
2022/11/25 20:46:58;;;;;;;34.47;22.80;;;;;;;;;;11135286;22;20075;-84
2022/11/25 20:52:00;;;;;;;32.60;21.02;;;;;;;;;;10737147;22;20052;-85
2022/11/25 20:57:01;;;;;;;30.30;21.00;;;;;;;;;;10863263;22;20042;-83
2022/11/25 21:02:02;;;;;;;29.25;19.63;;;;;;;;;;10396026;28;20034;-86
2022/11/25 21:07:03;;;;;;;38.92;21.83;;;;;;;;;;10494107;22;20042;-85
2022/11/25 21:12:10;;;;;;;37.13;19.42;;;;;;;;;;10441167;22;20049;-84
2022/11/25 21:17:11;;;;;;;30.77;18.73;;;;;;;;;;10506176;22;20033;-80
2022/11/25 21:22:13;;;;;;;31.57;17.93;;;;;;;;;;10890557;22;20034;-84
2022/11/25 21:27:15;;;;;;;32.10;17.30;;;;;;;;;;10485934;22;20057;-85
2022/11/25 21:32:20;;;;;;;29.80;15.88;;;;;;;;;;10436736;28;20030;-84
2022/11/25 21:37:30;;;;;;;35.75;17.95;;;;;;;;;;10432766;28;20049;-81
2022/11/25 21:42:31;;;;;;;33.28;18.65;;;;;;;;;;10427536;28;20056;-81
2022/11/25 21:47:32;;;;;;;27.88;16.98;;;;;;;;;;10430167;28;20028;-79
2022/11/25 21:52:32;;;;;;;28.80;16.40;;;;;;;;;;10427876;28;20013;-82
2022/11/25 21:57:33;;;;;;;28.92;16.02;;;;;;;;;;10439830;28;20045;-82
2022/11/25 22:02:35;;;;;;;27.40;15.73;;;;;;;;;;10437738;28;20021;-83
2022/11/25 22:07:35;;;;;;;35.72;17.67;;;;;;;;;;10413244;28;20075;-83
2022/11/25 22:12:38;;;;;;;31.52;16.33;;;;;;;;;;10405483;28;20537;-89
2022/11/25 22:17:40;;;;;;;26.92;15.75;;;;;;;;;;10404068;28;20053;-79
2022/11/25 22:22:40;;;;;;;27.58;15.90;;;;;;;;;;10426951;28;20034;-81
2022/11/25 22:27:41;;;;;;;26.55;15.55;;;;;;;;;;10396847;28;20037;-84
2022/11/25 22:32:41;;;;;;;34.60;17.40;;;;;;;;;;10367947;28;20108;-84
2022/11/25 22:37:42;;;;;;;40.47;19.15;;;;;;;;;;10368850;28;20076;-86
2022/11/25 22:42:44;;;;;;;34.83;18.77;;;;;;;;;;10367441;28;20121;-85
2022/11/25 22:47:46;;;;;;;35.03;17.23;;;;;;;;;;10384796;28;20041;-82
2022/11/25 22:52:47;;;;;;;35.30;17.52;;;;;;;;;;10386237;28;20030;-87
2022/11/25 22:57:51;;;;;;;31.77;16.02;;;;;;;;;;10367812;28;20092;-84
2022/11/25 23:02:53;;;;;;;31.83;17.65;;;;;;;;;;10370064;28;20048;-86
2022/11/25 23:07:53;;;;;;;38.83;18.58;;;;;;;;;;10392815;28;20023;-86
2022/11/25 23:12:55;;;;;;;31.58;18.80;;;;;;;;;;10390683;28;20053;-84
2022/11/25 23:17:57;;;;;;;30.33;17.10;;;;;;;;;;10374539;28;20077;-88
2022/11/25 23:23:10;;;;;;;37.70;18.10;;;;;;;;;;10382638;28;20040;-88
2022/11/25 23:28:10;;;;;;;38.60;19.27;;;;;;;;;;10397423;28;20030;-86
2022/11/25 23:33:15;;;;;;;29.65;16.95;;;;;;;;;;10404234;28;20040;-83
2022/11/25 23:38:19;;;;;;;32.78;19.10;;;;;;;;;;10420398;28;20060;-84
2022/11/25 23:43:20;;;;;;;30.33;16.80;;;;;;;;;;10426994;28;20058;-83
2022/11/25 23:48:25;;;;;;;29.80;16.85;;;;;;;;;;10399178;28;20058;-86
2022/11/25 23:53:28;;;;;;;32.13;17.63;;;;;;;;;;10391345;28;20081;-86
2022/11/25 23:58:28;;;;;;;33.28;18.38;;;;;;;;;;10394748;28;20072;-86
